sensor_id;sensor_type;location;lat;lon;timestamp;P1;durP1;ratioP1;P2;durP2;ratioP2
27491;SDS011;14927;51.210;6.838;2023-04-04T00:01:21;7.80;;;2.85;;
27491;SDS011;14927;51.210;6.838;2023-04-04T00:04:06;7.47;;;2.90;;
27491;SDS011;14927;51.210;6.838;2023-04-04T00:06:51;5.60;;;2.53;;
27491;SDS011;14927;51.210;6.838;2023-04-04T00:09:37;5.13;;;2.28;;
27491;SDS011;14927;51.210;6.838;2023-04-04T00:12:22;7.80;;;2.70;;
27491;SDS011;14927;51.210;6.838;2023-04-04T00:15:07;5.72;;;2.38;;
27491;SDS011;14927;51.210;6.838;2023-04-04T00:17:53;9.48;;;2.92;;
27491;SDS011;14927;51.210;6.838;2023-04-04T00:20:38;4.25;;;2.47;;
27491;SDS011;14927;51.210;6.838;2023-04-04T00:23:23;5.85;;;2.33;;
27491;SDS011;14927;51.210;6.838;2023-04-04T00:26:08;5.05;;;2.10;;
27491;SDS011;14927;51.210;6.838;2023-04-04T00:28:53;6.38;;;2.50;;
27491;SDS011;14927;51.210;6.838;2023-04-04T00:31:38;4.10;;;2.10;;
27491;SDS011;14927;51.210;6.838;2023-04-04T00:34:23;6.28;;;2.83;;
27491;SDS011;14927;51.210;6.838;2023-04-04T00:37:08;5.95;;;2.03;;
27491;SDS011;14927;51.210;6.838;2023-04-04T00:39:55;5.90;;;1.90;;
27491;SDS011;14927;51.210;6.838;2023-04-04T00:42:40;8.05;;;2.20;;
27491;SDS011;14927;51.210;6.838;2023-04-04T00:45:25;5.68;;;1.73;;
27491;SDS011;14927;51.210;6.838;2023-04-04T00:48:10;6.07;;;2.25;;
27491;SDS011;14927;51.210;6.838;2023-04-04T00:50:55;7.05;;;2.47;;
27491;SDS011;14927;51.210;6.838;2023-04-04T00:53:40;5.55;;;1.98;;
27491;SDS011;14927;51.210;6.838;2023-04-04T00:56:29;7.55;;;2.10;;
27491;SDS011;14927;51.210;6.838;2023-04-04T00:59:16;6.10;;;2.38;;
27491;SDS011;14927;51.210;6.838;2023-04-04T01:02:01;4.20;;;1.75;;
27491;SDS011;14927;51.210;6.838;2023-04-04T01:04:45;5.45;;;1.95;;
27491;SDS011;14927;51.210;6.838;2023-04-04T01:07:31;5.82;;;2.25;;
27491;SDS011;14927;51.210;6.838;2023-04-04T01:10:16;3.92;;;1.95;;
27491;SDS011;14927;51.210;6.838;2023-04-04T01:13:00;8.10;;;1.70;;
27491;SDS011;14927;51.210;6.838;2023-04-04T01:15:46;5.50;;;1.98;;
27491;SDS011;14927;51.210;6.838;2023-04-04T01:18:31;7.07;;;2.13;;
27491;SDS011;14927;51.210;6.838;2023-04-04T01:21:18;6.10;;;1.92;;
27491;SDS011;14927;51.210;6.838;2023-04-04T01:24:05;5.50;;;1.90;;
27491;SDS011;14927;51.210;6.838;2023-04-04T01:26:52;5.45;;;2.05;;
27491;SDS011;14927;51.210;6.838;2023-04-04T01:29:38;7.68;;;2.05;;
27491;SDS011;14927;51.210;6.838;2023-04-04T01:32:34;6.28;;;2.20;;
27491;SDS011;14927;51.210;6.838;2023-04-04T01:35:32;5.75;;;2.30;;
27491;SDS011;14927;51.210;6.838;2023-04-04T01:41:34;5.68;;;2.53;;
27491;SDS011;14927;51.210;6.838;2023-04-04T01:44:19;6.13;;;2.17;;
27491;SDS011;14927;51.210;6.838;2023-04-04T01:47:05;5.82;;;2.25;;
27491;SDS011;14927;51.210;6.838;2023-04-04T01:49:52;7.13;;;2.33;;
27491;SDS011;14927;51.210;6.838;2023-04-04T01:52:37;7.85;;;2.70;;
27491;SDS011;14927;51.210;6.838;2023-04-04T01:55:22;12.25;;;2.53;;
27491;SDS011;14927;51.210;6.838;2023-04-04T01:58:06;7.25;;;2.65;;
27491;SDS011;14927;51.210;6.838;2023-04-04T02:00:51;6.75;;;2.30;;
27491;SDS011;14927;51.210;6.838;2023-04-04T02:03:36;6.68;;;2.40;;
27491;SDS011;14927;51.210;6.838;2023-04-04T02:06:20;8.48;;;2.55;;
27491;SDS011;14927;51.210;6.838;2023-04-04T02:09:06;7.15;;;2.58;;
27491;SDS011;14927;51.210;6.838;2023-04-04T02:11:50;10.18;;;2.50;;
27491;SDS011;14927;51.210;6.838;2023-04-04T02:14:35;7.53;;;2.72;;
27491;SDS011;14927;51.210;6.838;2023-04-04T02:17:20;7.32;;;2.40;;
27491;SDS011;14927;51.210;6.838;2023-04-04T02:20:05;5.93;;;2.35;;
27491;SDS011;14927;51.210;6.838;2023-04-04T02:22:54;4.80;;;2.20;;
27491;SDS011;14927;51.210;6.838;2023-04-04T02:25:40;5.15;;;2.17;;
27491;SDS011;14927;51.210;6.838;2023-04-04T02:28:26;5.53;;;2.13;;
27491;SDS011;14927;51.210;6.838;2023-04-04T02:31:11;4.00;;;2.22;;
27491;SDS011;14927;51.210;6.838;2023-04-04T02:33:56;4.10;;;1.70;;
27491;SDS011;14927;51.210;6.838;2023-04-04T02:36:41;7.72;;;2.35;;
27491;SDS011;14927;51.210;6.838;2023-04-04T02:39:25;8.88;;;2.75;;
27491;SDS011;14927;51.210;6.838;2023-04-04T02:42:10;5.65;;;2.08;;
27491;SDS011;14927;51.210;6.838;2023-04-04T02:44:55;7.00;;;2.50;;
27491;SDS011;14927;51.210;6.838;2023-04-04T02:47:40;5.93;;;2.50;;
27491;SDS011;14927;51.210;6.838;2023-04-04T02:50:25;6.20;;;2.13;;
27491;SDS011;14927;51.210;6.838;2023-04-04T02:53:10;8.93;;;2.30;;
27491;SDS011;14927;51.210;6.838;2023-04-04T02:55:55;4.68;;;2.00;;
27491;SDS011;14927;51.210;6.838;2023-04-04T02:58:40;6.25;;;2.20;;
27491;SDS011;14927;51.210;6.838;2023-04-04T03:01:24;4.63;;;2.10;;
27491;SDS011;14927;51.210;6.838;2023-04-04T03:04:09;8.00;;;1.85;;
27491;SDS011;14927;51.210;6.838;2023-04-04T03:06:54;3.63;;;2.03;;
27491;SDS011;14927;51.210;6.838;2023-04-04T03:09:40;5.25;;;2.30;;
27491;SDS011;14927;51.210;6.838;2023-04-04T03:12:27;6.78;;;2.17;;
27491;SDS011;14927;51.210;6.838;2023-04-04T03:15:12;7.35;;;2.50;;
27491;SDS011;14927;51.210;6.838;2023-04-04T03:17:57;6.80;;;2.40;;
27491;SDS011;14927;51.210;6.838;2023-04-04T03:20:42;6.22;;;2.47;;
27491;SDS011;14927;51.210;6.838;2023-04-04T03:23:27;6.55;;;2.65;;
27491;SDS011;14927;51.210;6.838;2023-04-04T03:26:13;5.05;;;2.42;;
27491;SDS011;14927;51.210;6.838;2023-04-04T03:28:59;10.88;;;2.50;;
27491;SDS011;14927;51.210;6.838;2023-04-04T03:31:46;4.25;;;1.80;;
27491;SDS011;14927;51.210;6.838;2023-04-04T03:34:33;6.10;;;2.30;;
27491;SDS011;14927;51.210;6.838;2023-04-04T03:37:28;4.78;;;2.55;;
27491;SDS011;14927;51.210;6.838;2023-04-04T03:40:18;6.53;;;2.47;;
27491;SDS011;14927;51.210;6.838;2023-04-04T03:43:06;9.32;;;2.30;;
27491;SDS011;14927;51.210;6.838;2023-04-04T03:45:54;6.40;;;2.53;;
27491;SDS011;14927;51.210;6.838;2023-04-04T03:48:47;9.50;;;2.72;;
27491;SDS011;14927;51.210;6.838;2023-04-04T03:51:32;6.03;;;2.42;;
27491;SDS011;14927;51.210;6.838;2023-04-04T03:54:17;5.18;;;2.38;;
27491;SDS011;14927;51.210;6.838;2023-04-04T03:57:05;5.68;;;2.40;;
27491;SDS011;14927;51.210;6.838;2023-04-04T03:59:50;10.05;;;2.50;;
27491;SDS011;14927;51.210;6.838;2023-04-04T04:02:35;7.53;;;2.55;;
27491;SDS011;14927;51.210;6.838;2023-04-04T04:05:21;6.10;;;2.17;;
27491;SDS011;14927;51.210;6.838;2023-04-04T04:10:48;5.80;;;2.72;;
27491;SDS011;14927;51.210;6.838;2023-04-04T04:13:37;5.27;;;2.53;;
27491;SDS011;14927;51.210;6.838;2023-04-04T04:16:23;7.90;;;3.00;;
27491;SDS011;14927;51.210;6.838;2023-04-04T04:19:11;4.63;;;2.60;;
27491;SDS011;14927;51.210;6.838;2023-04-04T04:21:57;7.78;;;2.70;;
27491;SDS011;14927;51.210;6.838;2023-04-04T04:24:43;5.15;;;2.28;;
27491;SDS011;14927;51.210;6.838;2023-04-04T04:27:27;7.05;;;2.72;;
27491;SDS011;14927;51.210;6.838;2023-04-04T04:30:15;6.35;;;2.60;;
27491;SDS011;14927;51.210;6.838;2023-04-04T04:33:00;4.32;;;2.55;;
27491;SDS011;14927;51.210;6.838;2023-04-04T04:35:45;4.95;;;2.60;;
27491;SDS011;14927;51.210;6.838;2023-04-04T04:38:30;5.93;;;2.28;;
27491;SDS011;14927;51.210;6.838;2023-04-04T04:41:15;7.45;;;2.97;;
27491;SDS011;14927;51.210;6.838;2023-04-04T04:44:00;5.72;;;2.97;;
27491;SDS011;14927;51.210;6.838;2023-04-04T04:46:45;12.75;;;3.28;;
27491;SDS011;14927;51.210;6.838;2023-04-04T04:49:29;10.10;;;3.35;;
27491;SDS011;14927;51.210;6.838;2023-04-04T04:52:15;9.65;;;3.00;;
27491;SDS011;14927;51.210;6.838;2023-04-04T04:54:59;12.38;;;3.60;;
27491;SDS011;14927;51.210;6.838;2023-04-04T04:57:45;7.22;;;3.33;;
27491;SDS011;14927;51.210;6.838;2023-04-04T05:00:30;8.25;;;3.58;;
27491;SDS011;14927;51.210;6.838;2023-04-04T05:03:15;6.13;;;3.33;;
27491;SDS011;14927;51.210;6.838;2023-04-04T05:06:00;12.00;;;3.60;;
27491;SDS011;14927;51.210;6.838;2023-04-04T05:08:46;6.72;;;3.35;;
27491;SDS011;14927;51.210;6.838;2023-04-04T05:11:31;8.15;;;3.17;;
27491;SDS011;14927;51.210;6.838;2023-04-04T05:14:15;14.55;;;3.28;;
27491;SDS011;14927;51.210;6.838;2023-04-04T05:17:00;8.98;;;3.35;;
27491;SDS011;14927;51.210;6.838;2023-04-04T05:19:45;7.03;;;3.40;;
27491;SDS011;14927;51.210;6.838;2023-04-04T05:22:30;9.52;;;3.90;;
27491;SDS011;14927;51.210;6.838;2023-04-04T05:25:14;8.80;;;3.63;;
27491;SDS011;14927;51.210;6.838;2023-04-04T05:28:03;9.23;;;4.22;;
27491;SDS011;14927;51.210;6.838;2023-04-04T05:30:48;7.90;;;3.60;;
27491;SDS011;14927;51.210;6.838;2023-04-04T05:33:33;6.07;;;3.35;;
27491;SDS011;14927;51.210;6.838;2023-04-04T05:36:17;9.68;;;4.10;;
27491;SDS011;14927;51.210;6.838;2023-04-04T05:39:02;10.82;;;3.72;;
27491;SDS011;14927;51.210;6.838;2023-04-04T05:41:50;10.52;;;3.78;;
27491;SDS011;14927;51.210;6.838;2023-04-04T05:44:35;8.63;;;3.92;;
27491;SDS011;14927;51.210;6.838;2023-04-04T05:47:20;12.45;;;3.80;;
27491;SDS011;14927;51.210;6.838;2023-04-04T05:50:05;9.65;;;3.28;;
27491;SDS011;14927;51.210;6.838;2023-04-04T05:52:52;8.05;;;3.70;;
27491;SDS011;14927;51.210;6.838;2023-04-04T05:55:38;12.15;;;4.07;;
27491;SDS011;14927;51.210;6.838;2023-04-04T05:58:23;8.23;;;3.70;;
27491;SDS011;14927;51.210;6.838;2023-04-04T06:01:07;11.05;;;3.80;;
27491;SDS011;14927;51.210;6.838;2023-04-04T06:03:52;7.63;;;3.58;;
27491;SDS011;14927;51.210;6.838;2023-04-04T06:06:36;10.90;;;3.60;;
27491;SDS011;14927;51.210;6.838;2023-04-04T06:09:21;12.07;;;3.83;;
27491;SDS011;14927;51.210;6.838;2023-04-04T06:12:06;16.85;;;4.10;;
27491;SDS011;14927;51.210;6.838;2023-04-04T06:14:51;12.57;;;3.38;;
27491;SDS011;14927;51.210;6.838;2023-04-04T06:17:36;8.68;;;3.35;;
27491;SDS011;14927;51.210;6.838;2023-04-04T06:20:21;12.48;;;4.07;;
27491;SDS011;14927;51.210;6.838;2023-04-04T06:23:06;9.82;;;3.95;;
27491;SDS011;14927;51.210;6.838;2023-04-04T06:25:52;10.50;;;3.83;;
27491;SDS011;14927;51.210;6.838;2023-04-04T06:28:37;11.60;;;3.90;;
27491;SDS011;14927;51.210;6.838;2023-04-04T06:31:33;7.45;;;4.15;;
27491;SDS011;14927;51.210;6.838;2023-04-04T06:34:19;12.05;;;4.20;;
27491;SDS011;14927;51.210;6.838;2023-04-04T06:37:04;16.75;;;5.15;;
27491;SDS011;14927;51.210;6.838;2023-04-04T06:39:49;12.23;;;5.25;;
27491;SDS011;14927;51.210;6.838;2023-04-04T06:42:34;17.60;;;5.47;;
27491;SDS011;14927;51.210;6.838;2023-04-04T06:45:18;16.08;;;4.82;;
27491;SDS011;14927;51.210;6.838;2023-04-04T06:48:03;15.23;;;4.82;;
27491;SDS011;14927;51.210;6.838;2023-04-04T06:50:48;13.93;;;3.63;;
27491;SDS011;14927;51.210;6.838;2023-04-04T06:53:32;13.30;;;4.05;;
27491;SDS011;14927;51.210;6.838;2023-04-04T06:56:17;10.00;;;3.40;;
27491;SDS011;14927;51.210;6.838;2023-04-04T06:59:02;7.47;;;3.47;;
27491;SDS011;14927;51.210;6.838;2023-04-04T07:01:47;8.35;;;3.35;;
27491;SDS011;14927;51.210;6.838;2023-04-04T07:04:31;11.73;;;3.20;;
27491;SDS011;14927;51.210;6.838;2023-04-04T07:07:17;8.68;;;3.05;;
27491;SDS011;14927;51.210;6.838;2023-04-04T07:10:02;16.33;;;4.30;;
27491;SDS011;14927;51.210;6.838;2023-04-04T07:12:47;9.52;;;3.35;;
27491;SDS011;14927;51.210;6.838;2023-04-04T07:15:32;7.25;;;3.13;;
27491;SDS011;14927;51.210;6.838;2023-04-04T07:18:16;8.15;;;2.95;;
27491;SDS011;14927;51.210;6.838;2023-04-04T07:21:01;10.15;;;3.30;;
27491;SDS011;14927;51.210;6.838;2023-04-04T07:23:46;6.70;;;2.67;;
27491;SDS011;14927;51.210;6.838;2023-04-04T07:26:30;6.28;;;2.72;;
27491;SDS011;14927;51.210;6.838;2023-04-04T07:29:16;5.95;;;2.83;;
27491;SDS011;14927;51.210;6.838;2023-04-04T07:32:01;6.15;;;2.33;;
27491;SDS011;14927;51.210;6.838;2023-04-04T07:34:45;11.73;;;2.20;;
27491;SDS011;14927;51.210;6.838;2023-04-04T07:37:32;9.27;;;1.70;;
27491;SDS011;14927;51.210;6.838;2023-04-04T07:40:20;5.15;;;1.70;;
27491;SDS011;14927;51.210;6.838;2023-04-04T07:43:04;3.53;;;1.60;;
27491;SDS011;14927;51.210;6.838;2023-04-04T07:45:49;9.10;;;1.40;;
27491;SDS011;14927;51.210;6.838;2023-04-04T07:48:34;3.70;;;1.52;;
27491;SDS011;14927;51.210;6.838;2023-04-04T07:51:19;5.72;;;1.60;;
27491;SDS011;14927;51.210;6.838;2023-04-04T07:54:10;4.43;;;1.63;;
27491;SDS011;14927;51.210;6.838;2023-04-04T07:56:55;2.42;;;1.33;;
27491;SDS011;14927;51.210;6.838;2023-04-04T07:59:40;3.75;;;1.25;;
27491;SDS011;14927;51.210;6.838;2023-04-04T08:02:25;5.55;;;1.70;;
27491;SDS011;14927;51.210;6.838;2023-04-04T08:05:09;4.82;;;1.42;;
27491;SDS011;14927;51.210;6.838;2023-04-04T08:07:54;2.00;;;1.30;;
27491;SDS011;14927;51.210;6.838;2023-04-04T08:10:38;5.07;;;1.23;;
27491;SDS011;14927;51.210;6.838;2023-04-04T08:13:23;3.53;;;1.15;;
27491;SDS011;14927;51.210;6.838;2023-04-04T08:16:08;2.95;;;1.15;;
27491;SDS011;14927;51.210;6.838;2023-04-04T08:18:53;3.53;;;1.30;;
27491;SDS011;14927;51.210;6.838;2023-04-04T08:21:37;3.00;;;1.20;;
27491;SDS011;14927;51.210;6.838;2023-04-04T08:24:22;6.55;;;1.30;;
27491;SDS011;14927;51.210;6.838;2023-04-04T08:27:06;3.65;;;1.67;;
27491;SDS011;14927;51.210;6.838;2023-04-04T08:29:51;5.55;;;1.40;;
27491;SDS011;14927;51.210;6.838;2023-04-04T08:32:36;6.38;;;2.00;;
27491;SDS011;14927;51.210;6.838;2023-04-04T08:35:20;6.13;;;1.50;;
27491;SDS011;14927;51.210;6.838;2023-04-04T08:38:05;6.72;;;2.10;;
27491;SDS011;14927;51.210;6.838;2023-04-04T08:40:51;3.38;;;1.38;;
27491;SDS011;14927;51.210;6.838;2023-04-04T08:43:36;7.43;;;1.73;;
27491;SDS011;14927;51.210;6.838;2023-04-04T08:46:24;3.03;;;1.50;;
27491;SDS011;14927;51.210;6.838;2023-04-04T08:49:11;2.60;;;1.17;;
27491;SDS011;14927;51.210;6.838;2023-04-04T08:51:57;3.88;;;1.33;;
27491;SDS011;14927;51.210;6.838;2023-04-04T08:54:44;6.47;;;1.67;;
27491;SDS011;14927;51.210;6.838;2023-04-04T08:57:30;2.58;;;1.40;;
27491;SDS011;14927;51.210;6.838;2023-04-04T09:00:16;4.22;;;1.50;;
27491;SDS011;14927;51.210;6.838;2023-04-04T09:03:05;4.55;;;1.58;;
27491;SDS011;14927;51.210;6.838;2023-04-04T09:06:09;4.75;;;1.30;;
27491;SDS011;14927;51.210;6.838;2023-04-04T09:08:54;3.95;;;1.45;;
27491;SDS011;14927;51.210;6.838;2023-04-04T09:11:42;3.38;;;1.30;;
27491;SDS011;14927;51.210;6.838;2023-04-04T09:14:29;7.93;;;1.60;;
27491;SDS011;14927;51.210;6.838;2023-04-04T09:17:15;3.00;;;1.20;;
27491;SDS011;14927;51.210;6.838;2023-04-04T09:20:02;6.28;;;1.58;;
27491;SDS011;14927;51.210;6.838;2023-04-04T09:23:16;6.18;;;1.55;;
27491;SDS011;14927;51.210;6.838;2023-04-04T09:26:03;6.00;;;1.42;;
27491;SDS011;14927;51.210;6.838;2023-04-04T09:28:51;5.32;;;1.58;;
27491;SDS011;14927;51.210;6.838;2023-04-04T09:31:36;5.30;;;1.55;;
27491;SDS011;14927;51.210;6.838;2023-04-04T09:34:21;5.35;;;1.48;;
27491;SDS011;14927;51.210;6.838;2023-04-04T09:37:05;5.13;;;2.05;;
27491;SDS011;14927;51.210;6.838;2023-04-04T09:39:51;3.00;;;1.42;;
27491;SDS011;14927;51.210;6.838;2023-04-04T09:42:36;7.95;;;1.40;;
27491;SDS011;14927;51.210;6.838;2023-04-04T09:45:23;3.83;;;1.50;;
27491;SDS011;14927;51.210;6.838;2023-04-04T09:48:22;4.97;;;1.90;;
27491;SDS011;14927;51.210;6.838;2023-04-04T09:51:15;4.35;;;1.42;;
27491;SDS011;14927;51.210;6.838;2023-04-04T09:54:00;20.80;;;1.88;;
27491;SDS011;14927;51.210;6.838;2023-04-04T09:56:46;3.40;;;1.40;;
27491;SDS011;14927;51.210;6.838;2023-04-04T09:59:32;3.60;;;1.38;;
27491;SDS011;14927;51.210;6.838;2023-04-04T10:02:17;2.63;;;1.48;;
27491;SDS011;14927;51.210;6.838;2023-04-04T10:05:02;3.85;;;1.23;;
27491;SDS011;14927;51.210;6.838;2023-04-04T10:07:48;8.05;;;1.75;;
27491;SDS011;14927;51.210;6.838;2023-04-04T10:10:33;3.00;;;1.30;;
27491;SDS011;14927;51.210;6.838;2023-04-04T10:13:24;3.10;;;1.50;;
27491;SDS011;14927;51.210;6.838;2023-04-04T10:16:10;5.82;;;1.50;;
27491;SDS011;14927;51.210;6.838;2023-04-04T10:18:57;5.28;;;1.65;;
27491;SDS011;14927;51.210;6.838;2023-04-04T10:21:45;5.28;;;1.60;;
27491;SDS011;14927;51.210;6.838;2023-04-04T10:24:32;3.65;;;1.52;;
27491;SDS011;14927;51.210;6.838;2023-04-04T10:27:17;3.83;;;1.48;;
27491;SDS011;14927;51.210;6.838;2023-04-04T10:30:02;4.70;;;1.70;;
27491;SDS011;14927;51.210;6.838;2023-04-04T10:33:00;4.47;;;1.45;;
27491;SDS011;14927;51.210;6.838;2023-04-04T10:35:50;4.82;;;1.90;;
27491;SDS011;14927;51.210;6.838;2023-04-04T10:41:27;3.22;;;1.35;;
27491;SDS011;14927;51.210;6.838;2023-04-04T10:44:30;3.60;;;1.38;;
27491;SDS011;14927;51.210;6.838;2023-04-04T10:47:20;5.90;;;2.03;;
27491;SDS011;14927;51.210;6.838;2023-04-04T10:50:06;5.75;;;1.70;;
27491;SDS011;14927;51.210;6.838;2023-04-04T10:52:55;7.03;;;1.48;;
27491;SDS011;14927;51.210;6.838;2023-04-04T10:55:42;4.70;;;1.60;;
27491;SDS011;14927;51.210;6.838;2023-04-04T10:58:29;3.42;;;1.30;;
27491;SDS011;14927;51.210;6.838;2023-04-04T11:01:13;3.28;;;1.60;;
27491;SDS011;14927;51.210;6.838;2023-04-04T11:04:14;3.08;;;1.67;;
27491;SDS011;14927;51.210;6.838;2023-04-04T11:09:53;3.20;;;1.52;;
27491;SDS011;14927;51.210;6.838;2023-04-04T11:12:43;6.53;;;2.08;;
27491;SDS011;14927;51.210;6.838;2023-04-04T11:15:43;4.88;;;1.88;;
27491;SDS011;14927;51.210;6.838;2023-04-04T11:21:30;7.13;;;1.50;;
27491;SDS011;14927;51.210;6.838;2023-04-04T11:24:15;4.07;;;1.35;;
27491;SDS011;14927;51.210;6.838;2023-04-04T11:27:01;4.00;;;1.77;;
27491;SDS011;14927;51.210;6.838;2023-04-04T11:29:50;3.30;;;1.42;;
27491;SDS011;14927;51.210;6.838;2023-04-04T11:32:42;4.40;;;1.45;;
27491;SDS011;14927;51.210;6.838;2023-04-04T11:35:31;4.13;;;1.52;;
27491;SDS011;14927;51.210;6.838;2023-04-04T11:38:16;3.65;;;1.63;;
27491;SDS011;14927;51.210;6.838;2023-04-04T11:41:07;2.70;;;1.55;;
27491;SDS011;14927;51.210;6.838;2023-04-04T11:43:53;5.93;;;1.50;;
27491;SDS011;14927;51.210;6.838;2023-04-04T11:46:41;3.33;;;1.40;;
27491;SDS011;14927;51.210;6.838;2023-04-04T11:49:27;4.65;;;1.45;;
27491;SDS011;14927;51.210;6.838;2023-04-04T11:52:18;6.80;;;1.60;;
27491;SDS011;14927;51.210;6.838;2023-04-04T11:55:18;5.10;;;1.88;;
27491;SDS011;14927;51.210;6.838;2023-04-04T11:58:08;5.45;;;1.73;;
27491;SDS011;14927;51.210;6.838;2023-04-04T12:00:59;3.53;;;1.67;;
27491;SDS011;14927;51.210;6.838;2023-04-04T12:03:44;3.05;;;1.45;;
27491;SDS011;14927;51.210;6.838;2023-04-04T12:06:29;4.30;;;1.55;;
27491;SDS011;14927;51.210;6.838;2023-04-04T12:09:18;3.10;;;1.48;;
27491;SDS011;14927;51.210;6.838;2023-04-04T12:14:59;4.63;;;1.80;;
27491;SDS011;14927;51.210;6.838;2023-04-04T12:17:44;5.25;;;2.13;;
27491;SDS011;14927;51.210;6.838;2023-04-04T12:20:37;5.53;;;1.85;;
27491;SDS011;14927;51.210;6.838;2023-04-04T12:23:24;3.85;;;1.80;;
27491;SDS011;14927;51.210;6.838;2023-04-04T12:26:10;4.18;;;1.92;;
27491;SDS011;14927;51.210;6.838;2023-04-04T12:28:55;7.50;;;2.38;;
27491;SDS011;14927;51.210;6.838;2023-04-04T12:31:41;5.63;;;2.10;;
27491;SDS011;14927;51.210;6.838;2023-04-04T12:34:28;3.90;;;1.75;;
27491;SDS011;14927;51.210;6.838;2023-04-04T12:37:19;6.82;;;1.98;;
27491;SDS011;14927;51.210;6.838;2023-04-04T12:40:06;6.00;;;2.50;;
27491;SDS011;14927;51.210;6.838;2023-04-04T12:42:54;3.67;;;1.92;;
27491;SDS011;14927;51.210;6.838;2023-04-04T12:45:39;3.90;;;1.48;;
27491;SDS011;14927;51.210;6.838;2023-04-04T12:48:27;5.68;;;1.73;;
27491;SDS011;14927;51.210;6.838;2023-04-04T12:54:02;10.45;;;2.17;;
27491;SDS011;14927;51.210;6.838;2023-04-04T12:56:55;3.60;;;1.58;;
27491;SDS011;14927;51.210;6.838;2023-04-04T12:59:44;3.47;;;1.45;;
27491;SDS011;14927;51.210;6.838;2023-04-04T13:02:30;4.82;;;1.60;;
27491;SDS011;14927;51.210;6.838;2023-04-04T13:05:18;5.00;;;1.77;;
27491;SDS011;14927;51.210;6.838;2023-04-04T13:08:05;4.05;;;1.55;;
27491;SDS011;14927;51.210;6.838;2023-04-04T13:13:47;3.97;;;1.73;;
27491;SDS011;14927;51.210;6.838;2023-04-04T13:17:00;3.15;;;1.35;;
27491;SDS011;14927;51.210;6.838;2023-04-04T13:19:49;3.47;;;1.60;;
27491;SDS011;14927;51.210;6.838;2023-04-04T13:22:46;2.83;;;1.52;;
27491;SDS011;14927;51.210;6.838;2023-04-04T13:25:32;4.05;;;1.40;;
27491;SDS011;14927;51.210;6.838;2023-04-04T13:28:17;4.88;;;1.55;;
27491;SDS011;14927;51.210;6.838;2023-04-04T13:31:06;2.08;;;1.25;;
27491;SDS011;14927;51.210;6.838;2023-04-04T13:33:53;4.40;;;1.70;;
27491;SDS011;14927;51.210;6.838;2023-04-04T13:36:38;2.95;;;1.38;;
27491;SDS011;14927;51.210;6.838;2023-04-04T13:39:23;2.65;;;1.60;;
27491;SDS011;14927;51.210;6.838;2023-04-04T13:42:12;5.55;;;1.50;;
27491;SDS011;14927;51.210;6.838;2023-04-04T13:44:57;3.03;;;1.40;;
27491;SDS011;14927;51.210;6.838;2023-04-04T13:47:41;3.67;;;1.50;;
27491;SDS011;14927;51.210;6.838;2023-04-04T13:50:30;4.97;;;1.30;;
27491;SDS011;14927;51.210;6.838;2023-04-04T13:53:16;2.53;;;1.33;;
27491;SDS011;14927;51.210;6.838;2023-04-04T13:56:01;2.83;;;1.10;;
27491;SDS011;14927;51.210;6.838;2023-04-04T13:58:47;5.90;;;1.45;;
27491;SDS011;14927;51.210;6.838;2023-04-04T14:01:33;2.90;;;1.52;;
27491;SDS011;14927;51.210;6.838;2023-04-04T14:04:18;5.10;;;1.50;;
27491;SDS011;14927;51.210;6.838;2023-04-04T14:07:03;2.10;;;1.00;;
27491;SDS011;14927;51.210;6.838;2023-04-04T14:09:49;3.10;;;1.58;;
27491;SDS011;14927;51.210;6.838;2023-04-04T14:12:34;1.63;;;1.17;;
27491;SDS011;14927;51.210;6.838;2023-04-04T14:15:19;4.97;;;1.63;;
27491;SDS011;14927;51.210;6.838;2023-04-04T14:18:07;4.78;;;1.10;;
27491;SDS011;14927;51.210;6.838;2023-04-04T14:20:51;4.15;;;1.40;;
27491;SDS011;14927;51.210;6.838;2023-04-04T14:23:36;5.25;;;1.95;;
27491;SDS011;14927;51.210;6.838;2023-04-04T14:26:21;6.00;;;1.52;;
27491;SDS011;14927;51.210;6.838;2023-04-04T14:29:06;2.97;;;1.52;;
27491;SDS011;14927;51.210;6.838;2023-04-04T14:31:51;1.88;;;1.27;;
27491;SDS011;14927;51.210;6.838;2023-04-04T14:34:38;1.50;;;1.20;;
27491;SDS011;14927;51.210;6.838;2023-04-04T14:37:27;2.40;;;1.40;;
27491;SDS011;14927;51.210;6.838;2023-04-04T14:40:12;3.17;;;1.50;;
27491;SDS011;14927;51.210;6.838;2023-04-04T14:42:56;7.90;;;1.73;;
27491;SDS011;14927;51.210;6.838;2023-04-04T14:45:41;4.53;;;1.38;;
27491;SDS011;14927;51.210;6.838;2023-04-04T14:48:27;3.78;;;1.20;;
27491;SDS011;14927;51.210;6.838;2023-04-04T14:51:14;4.05;;;2.10;;
27491;SDS011;14927;51.210;6.838;2023-04-04T14:53:59;3.10;;;1.70;;
27491;SDS011;14927;51.210;6.838;2023-04-04T14:56:44;2.38;;;1.33;;
27491;SDS011;14927;51.210;6.838;2023-04-04T15:02:14;5.03;;;1.85;;
27491;SDS011;14927;51.210;6.838;2023-04-04T15:04:59;3.38;;;1.38;;
27491;SDS011;14927;51.210;6.838;2023-04-04T15:07:44;4.45;;;1.80;;
27491;SDS011;14927;51.210;6.838;2023-04-04T15:10:32;5.82;;;1.80;;
27491;SDS011;14927;51.210;6.838;2023-04-04T15:13:17;4.28;;;1.60;;
27491;SDS011;14927;51.210;6.838;2023-04-04T15:16:04;2.15;;;1.65;;
27491;SDS011;14927;51.210;6.838;2023-04-04T15:18:52;3.90;;;1.95;;
27491;SDS011;14927;51.210;6.838;2023-04-04T15:21:41;4.18;;;1.80;;
27491;SDS011;14927;51.210;6.838;2023-04-04T15:24:26;4.00;;;2.05;;
27491;SDS011;14927;51.210;6.838;2023-04-04T15:27:12;1.95;;;1.33;;
27491;SDS011;14927;51.210;6.838;2023-04-04T15:29:57;3.42;;;2.10;;
27491;SDS011;14927;51.210;6.838;2023-04-04T15:35:25;3.20;;;2.10;;
27491;SDS011;14927;51.210;6.838;2023-04-04T15:38:10;3.22;;;1.90;;
27491;SDS011;14927;51.210;6.838;2023-04-04T15:40:59;3.67;;;2.50;;
27491;SDS011;14927;51.210;6.838;2023-04-04T15:43:45;4.43;;;1.98;;
27491;SDS011;14927;51.210;6.838;2023-04-04T15:46:33;4.43;;;2.00;;
27491;SDS011;14927;51.210;6.838;2023-04-04T15:52:15;2.45;;;1.83;;
27491;SDS011;14927;51.210;6.838;2023-04-04T15:55:01;4.95;;;1.90;;
27491;SDS011;14927;51.210;6.838;2023-04-04T15:57:50;3.42;;;1.70;;
27491;SDS011;14927;51.210;6.838;2023-04-04T16:00:39;3.28;;;2.10;;
27491;SDS011;14927;51.210;6.838;2023-04-04T16:03:33;2.63;;;1.73;;
27491;SDS011;14927;51.210;6.838;2023-04-04T16:06:20;4.68;;;2.15;;
27491;SDS011;14927;51.210;6.838;2023-04-04T16:09:08;4.28;;;2.75;;
27491;SDS011;14927;51.210;6.838;2023-04-04T16:11:54;4.80;;;2.40;;
27491;SDS011;14927;51.210;6.838;2023-04-04T16:14:40;2.85;;;1.60;;
27491;SDS011;14927;51.210;6.838;2023-04-04T16:17:27;3.15;;;1.85;;
27491;SDS011;14927;51.210;6.838;2023-04-04T16:20:12;4.65;;;2.22;;
27491;SDS011;14927;51.210;6.838;2023-04-04T16:23:00;7.78;;;2.40;;
27491;SDS011;14927;51.210;6.838;2023-04-04T16:25:45;4.20;;;2.30;;
27491;SDS011;14927;51.210;6.838;2023-04-04T16:28:34;3.78;;;2.22;;
27491;SDS011;14927;51.210;6.838;2023-04-04T16:31:23;7.75;;;2.58;;
27491;SDS011;14927;51.210;6.838;2023-04-04T16:34:07;6.10;;;2.42;;
27491;SDS011;14927;51.210;6.838;2023-04-04T16:36:53;4.55;;;2.40;;
27491;SDS011;14927;51.210;6.838;2023-04-04T16:39:43;5.85;;;2.17;;
27491;SDS011;14927;51.210;6.838;2023-04-04T16:42:32;6.25;;;2.47;;
27491;SDS011;14927;51.210;6.838;2023-04-04T16:45:18;5.35;;;2.45;;
27491;SDS011;14927;51.210;6.838;2023-04-04T16:48:04;3.58;;;2.05;;
27491;SDS011;14927;51.210;6.838;2023-04-04T16:50:49;6.63;;;2.40;;
27491;SDS011;14927;51.210;6.838;2023-04-04T16:53:35;5.90;;;1.90;;
27491;SDS011;14927;51.210;6.838;2023-04-04T16:56:20;4.60;;;2.20;;
27491;SDS011;14927;51.210;6.838;2023-04-04T16:59:05;6.60;;;1.95;;
27491;SDS011;14927;51.210;6.838;2023-04-04T17:01:51;7.57;;;2.47;;
27491;SDS011;14927;51.210;6.838;2023-04-04T17:04:39;6.97;;;2.75;;
27491;SDS011;14927;51.210;6.838;2023-04-04T17:07:26;4.65;;;2.33;;
27491;SDS011;14927;51.210;6.838;2023-04-04T17:10:11;5.93;;;2.33;;
27491;SDS011;14927;51.210;6.838;2023-04-04T17:12:58;6.60;;;2.30;;